AL72 weather

CLOSED Palmer Field
Madison, Alabama, United States

Public forecast

Using degrees Fahrenheit for public forecast. Weather courtesy of forecast.io.

Closest aviation weather report (METAR) to Palmer Field

Closest report is Huntsville International Carl T Jones Field, 3.5 nm (6.5 km) S. Retrieved 2019/10/18 14:53 UTC (1 hour ago):

KHSV 181453Z 15005KT 10SM SCT250 13/06 A3004 RMK AO2 SLP172 T01330061 51008

Closest aviation forecast (TAF) to Palmer Field

Closest forecast is Huntsville International Carl T Jones Field, 3.5 nm (6.5 km) S. Retrieved 2019/10/18 12:22 UTC (4 hours ago):

TAF KHSV 181120Z 1812/1912 05002KT P6SM SCT250 FM181500 10008KT P6SM SKC